Time;durP1;ratioP1;P1;durP2;ratioP2;P2;SDS_P1;SDS_P2;PMS_P1;PMS_P2;Temp;Humidity;BMP_temperature;BMP_pressure;BME280_temperature;BME280_humidity;BME280_pressure;Samples;Min_cycle;Max_cycle;Signal;HPM_P1;HPM_P2
2023/01/17 00:01:04;;;;;;;2.93;2.73;;;14.70;60.50;;;;;;5099389;28;20446;-78
2023/01/17 00:03:32;;;;;;;2.47;2.37;;;14.70;60.30;;;;;;5095107;28;20471;-78
2023/01/17 00:11:33;;;;;;;4.80;2.63;;;14.70;60.30;;;;;;5091645;28;20448;-78
2023/01/17 00:14:01;;;;;;;2.60;2.40;;;14.70;60.40;;;;;;5095973;28;20476;-78
2023/01/17 00:16:29;;;;;;;3.13;2.60;;;14.70;60.30;;;;;;5096265;28;20454;-79
2023/01/17 01:34:07;;;;;;;2.33;2.13;;;14.50;60.30;;;;;;5096077;28;20472;-78
2023/01/17 01:36:34;;;;;;;2.70;2.50;;;14.50;60.20;;;;;;5092677;28;20457;-78
2023/01/17 01:39:02;;;;;;;2.60;2.47;;;14.50;60.20;;;;;;5092496;28;20436;-77
2023/01/17 01:41:30;;;;;;;2.87;2.63;;;14.50;60.30;;;;;;5089036;28;20456;-78
2023/01/17 01:43:59;;;;;;;2.70;2.50;;;14.50;60.30;;;;;;5095666;28;20476;-78
2023/01/17 01:46:30;;;;;;;2.43;2.20;;;14.50;60.20;;;;;;5090120;28;20455;-78
2023/01/17 01:48:58;;;;;;;2.60;2.40;;;14.50;60.30;;;;;;5091360;28;20452;-77
2023/01/17 01:51:29;;;;;;;2.90;2.20;;;14.50;60.20;;;;;;5089051;28;20445;-77
2023/01/17 01:54:00;;;;;;;2.57;2.37;;;14.50;60.20;;;;;;5096514;28;20479;-78
2023/01/17 01:56:28;;;;;;;2.53;2.33;;;14.50;60.10;;;;;;5093090;28;20449;-78
2023/01/17 01:58:56;;;;;;;2.00;1.90;;;14.50;60.30;;;;;;5094126;28;20448;-78
2023/01/17 02:01:25;;;;;;;2.60;2.40;;;14.50;60.30;;;;;;5092195;28;20468;-77
2023/01/17 02:03:53;;;;;;;2.90;2.43;;;14.50;60.30;;;;;;5085776;28;20464;-77
2023/01/17 02:06:27;;;;;;;2.40;2.30;;;14.50;60.30;;;;;;5086934;28;20556;-78
2023/01/17 02:08:56;;;;;;;2.50;2.30;;;14.50;60.30;;;;;;5082844;28;20438;-77
2023/01/17 02:11:24;;;;;;;3.03;2.77;;;14.50;60.90;;;;;;5091381;28;20444;-77
2023/01/17 02:13:52;;;;;;;2.20;2.10;;;14.50;60.20;;;;;;5094383;28;20556;-78
2023/01/17 02:16:43;;;;;;;2.63;2.43;;;14.50;60.20;;;;;;5091128;28;20445;-79
2023/01/17 02:19:27;;;;;;;2.30;2.20;;;14.50;60.10;;;;;;5088913;28;20432;-77
2023/01/17 02:21:59;;;;;;;2.43;2.23;;;14.50;60.30;;;;;;5078777;28;20421;-78
2023/01/17 02:25:02;;;;;;;2.63;1.97;;;14.50;60.30;;;;;;5082121;28;20465;-77
2023/01/17 02:27:34;;;;;;;2.40;2.20;;;14.50;60.20;;;;;;5050756;28;20447;-77
2023/01/17 02:30:33;;;;;;;2.83;2.40;;;14.50;60.50;;;;;;5090219;28;20448;-77
2023/01/17 02:33:08;;;;;;;2.00;1.90;;;14.50;60.30;;;;;;5087268;28;20440;-77
2023/01/17 02:35:40;;;;;;;2.47;2.27;;;14.50;60.30;;;;;;5093606;28;20448;-77
2023/01/17 02:38:14;;;;;;;2.17;2.00;;;14.50;60.30;;;;;;5088450;28;20456;-77
2023/01/17 02:40:43;;;;;;;3.17;1.97;;;14.50;60.30;;;;;;5092517;28;20468;-78
2023/01/17 02:43:11;;;;;;;2.50;2.30;;;14.50;60.30;;;;;;5092021;28;20463;-78
2023/01/17 02:45:40;;;;;;;2.13;2.00;;;14.50;60.40;;;;;;5094797;28;20429;-77
2023/01/17 02:48:09;;;;;;;1.90;1.80;;;14.50;60.20;;;;;;5097815;28;20439;-77
2023/01/17 02:50:46;;;;;;;1.80;1.70;;;14.50;60.30;;;;;;5095300;28;20436;-78
2023/01/17 02:53:21;;;;;;;2.13;1.90;;;14.40;60.10;;;;;;5094778;28;20456;-77
2023/01/17 02:55:53;;;;;;;1.90;1.80;;;14.40;60.30;;;;;;5086359;28;20914;-77
2023/01/17 02:58:29;;;;;;;3.17;2.20;;;14.50;60.30;;;;;;5087210;28;20460;-78
2023/01/17 03:01:03;;;;;;;2.00;1.90;;;14.50;60.20;;;;;;5093328;28;20464;-78
2023/01/17 03:03:34;;;;;;;2.00;1.90;;;14.40;60.10;;;;;;5092458;28;20474;-78
2023/01/17 03:06:10;;;;;;;2.00;1.90;;;14.40;60.30;;;;;;5092404;28;20452;-78
2023/01/17 03:08:39;;;;;;;1.83;1.73;;;14.40;60.20;;;;;;5087105;28;20490;-77
2023/01/17 03:11:08;;;;;;;2.10;2.00;;;14.40;60.20;;;;;;5088556;28;20455;-78
2023/01/17 03:13:36;;;;;;;2.23;2.13;;;14.40;60.20;;;;;;5094488;28;20472;-79
2023/01/17 03:16:08;;;;;;;2.37;2.00;;;14.40;60.20;;;;;;5086566;28;20843;-77
2023/01/17 03:18:39;;;;;;;2.00;1.90;;;14.40;60.20;;;;;;5092526;28;20453;-77
2023/01/17 03:21:07;;;;;;;2.10;1.90;;;14.40;60.20;;;;;;5097819;28;20460;-78
2023/01/17 03:23:34;;;;;;;2.13;1.87;;;14.40;60.30;;;;;;5093337;28;20473;-77
2023/01/17 03:26:03;;;;;;;1.93;1.83;;;14.40;60.40;;;;;;5093840;28;20456;-77
2023/01/17 03:28:31;;;;;;;2.20;2.03;;;14.40;60.40;;;;;;5093993;28;20456;-77
2023/01/17 03:30:59;;;;;;;2.17;2.07;;;14.40;60.40;;;;;;5093479;28;20448;-77
2023/01/17 03:33:28;;;;;;;2.10;2.00;;;14.40;60.40;;;;;;5087624;28;20445;-76
2023/01/17 03:35:56;;;;;;;1.87;1.70;;;14.40;60.40;;;;;;5085700;28;20439;-78
2023/01/17 03:38:24;;;;;;;2.07;1.97;;;14.40;60.30;;;;;;5091139;28;20455;-77
2023/01/17 03:40:53;;;;;;;1.50;1.40;;;14.40;60.50;;;;;;5090189;28;20484;-78
2023/01/17 03:43:20;;;;;;;2.17;2.07;;;14.40;60.40;;;;;;5094042;28;20448;-77
2023/01/17 03:45:49;;;;;;;2.07;1.97;;;14.40;60.40;;;;;;5093276;28;20424;-78
2023/01/17 03:48:17;;;;;;;1.97;1.87;;;14.40;60.40;;;;;;5088638;28;20515;-77
2023/01/17 03:50:50;;;;;;;2.00;1.80;;;14.40;60.30;;;;;;5090211;28;20451;-78
2023/01/17 03:53:18;;;;;;;2.00;1.90;;;14.40;60.20;;;;;;5088929;28;20832;-77
2023/01/17 03:55:46;;;;;;;2.57;2.03;;;14.40;60.30;;;;;;5094870;28;20457;-77
2023/01/17 03:58:15;;;;;;;2.10;2.00;;;14.30;60.10;;;;;;5086636;28;20456;-78
2023/01/17 04:00:43;;;;;;;2.13;2.03;;;14.30;60.40;;;;;;5089769;28;20468;-77
2023/01/17 04:03:11;;;;;;;1.97;1.60;;;14.30;60.40;;;;;;5104176;28;20452;-77
2023/01/17 04:05:39;;;;;;;1.80;1.70;;;14.30;60.20;;;;;;5091858;28;20453;-77
2023/01/17 04:08:08;;;;;;;1.80;1.70;;;14.30;60.20;;;;;;5093589;28;20467;-77
2023/01/17 04:10:36;;;;;;;1.93;1.83;;;14.30;60.30;;;;;;5097801;28;20452;-77
2023/01/17 04:13:04;;;;;;;2.63;1.90;;;14.30;60.30;;;;;;5095554;28;20453;-78
2023/01/17 04:15:33;;;;;;;2.00;1.90;;;14.30;60.30;;;;;;5090504;28;20449;-78
2023/01/17 04:18:00;;;;;;;2.50;2.00;;;14.30;60.30;;;;;;5088885;28;20448;-78
2023/01/17 04:20:30;;;;;;;2.00;1.90;;;14.30;60.50;;;;;;5098491;28;20456;-76
2023/01/17 04:22:58;;;;;;;1.80;1.70;;;14.30;60.40;;;;;;5092582;28;20460;-77
2023/01/17 04:25:29;;;;;;;1.83;1.73;;;14.30;60.40;;;;;;5106052;28;20471;-77
2023/01/17 04:27:57;;;;;;;1.87;1.70;;;14.30;60.30;;;;;;5105770;28;20464;-77
2023/01/17 04:30:26;;;;;;;1.57;1.47;;;14.30;60.40;;;;;;5098657;28;20483;-78
2023/01/17 04:32:54;;;;;;;2.43;2.10;;;14.30;60.30;;;;;;5097575;28;20463;-77
2023/01/17 04:35:21;;;;;;;2.73;1.60;;;14.30;60.40;;;;;;5089306;28;20479;-77
2023/01/17 04:37:50;;;;;;;1.57;1.47;;;14.30;60.40;;;;;;5095084;28;20464;-79
2023/01/17 04:40:18;;;;;;;5.67;1.90;;;14.30;60.40;;;;;;5096734;28;20942;-77
2023/01/17 04:42:48;;;;;;;1.67;1.57;;;14.30;60.50;;;;;;5105167;28;20480;-78
2023/01/17 04:45:16;;;;;;;3.50;2.33;;;14.30;60.40;;;;;;5101894;28;20463;-77
2023/01/17 04:47:44;;;;;;;1.73;1.63;;;14.30;60.50;;;;;;5100584;28;20522;-77
2023/01/17 04:50:12;;;;;;;2.20;1.93;;;14.30;60.50;;;;;;5103924;28;20471;-77
2023/01/17 04:52:40;;;;;;;1.80;1.70;;;14.30;60.50;;;;;;5080415;28;20461;-78
2023/01/17 04:55:08;;;;;;;2.00;1.80;;;14.30;60.50;;;;;;5095423;28;20490;-77
2023/01/17 04:57:37;;;;;;;1.90;1.80;;;14.30;60.50;;;;;;5095055;28;20445;-78
2023/01/17 05:00:08;;;;;;;2.70;2.20;;;14.30;60.50;;;;;;5095205;28;20444;-77
2023/01/17 05:02:35;;;;;;;3.07;1.93;;;14.30;60.60;;;;;;5099832;28;20471;-77
2023/01/17 05:05:05;;;;;;;3.47;2.00;;;14.30;60.50;;;;;;5094559;28;20519;-79
2023/01/17 05:07:32;;;;;;;2.13;1.53;;;14.30;60.60;;;;;;5085855;28;20473;-78
2023/01/17 05:10:03;;;;;;;2.30;1.63;;;14.30;60.60;;;;;;5099621;28;20456;-79
2023/01/17 05:12:31;;;;;;;1.60;1.50;;;14.30;60.40;;;;;;5101021;28;20448;-78
2023/01/17 05:14:59;;;;;;;2.07;1.77;;;14.30;60.50;;;;;;5103916;28;20483;-77
2023/01/17 05:17:28;;;;;;;2.00;1.90;;;14.30;60.50;;;;;;5099351;28;20448;-78
2023/01/17 05:19:56;;;;;;;1.93;1.77;;;14.30;60.60;;;;;;5097058;28;20446;-78
2023/01/17 05:22:24;;;;;;;1.87;1.77;;;14.30;60.80;;;;;;5101392;28;20480;-77
2023/01/17 05:24:52;;;;;;;1.70;1.60;;;14.30;60.80;;;;;;5089220;28;20475;-75
2023/01/17 05:27:20;;;;;;;2.47;2.27;;;14.30;60.70;;;;;;5102820;28;20477;-78
2023/01/17 05:29:48;;;;;;;1.60;1.50;;;14.30;60.70;;;;;;5093748;28;20453;-78
2023/01/17 05:32:15;;;;;;;1.70;1.60;;;14.30;60.70;;;;;;5103771;28;20455;-77
2023/01/17 05:34:45;;;;;;;1.97;1.83;;;14.30;60.70;;;;;;5091915;28;20464;-78
2023/01/17 05:37:12;;;;;;;1.83;1.73;;;14.20;60.60;;;;;;5100905;28;20475;-78
2023/01/17 05:39:41;;;;;;;5.40;1.50;;;14.30;60.70;;;;;;5098319;28;20452;-78
2023/01/17 05:42:08;;;;;;;1.70;1.60;;;14.30;60.50;;;;;;5106356;28;20487;-77
2023/01/17 05:44:37;;;;;;;1.97;1.43;;;14.20;60.40;;;;;;5101329;28;20477;-79
2023/01/17 05:47:05;;;;;;;1.77;1.67;;;14.20;60.40;;;;;;5103846;28;20457;-77
2023/01/17 05:49:33;;;;;;;1.60;1.50;;;14.20;60.20;;;;;;5100475;28;20461;-78
2023/01/17 05:52:02;;;;;;;2.50;1.73;;;14.20;60.10;;;;;;5097371;28;20469;-77
2023/01/17 05:54:30;;;;;;;1.50;1.40;;;14.10;60.10;;;;;;5090887;28;20469;-78
2023/01/17 05:56:57;;;;;;;2.43;1.83;;;14.10;60.10;;;;;;5090083;28;20530;-76
2023/01/17 05:59:25;;;;;;;2.43;1.80;;;14.10;60.00;;;;;;5102948;28;20476;-77
2023/01/17 06:02:04;;;;;;;1.47;1.30;;;14.10;59.90;;;;;;5100135;28;20479;-76
2023/01/17 06:04:31;;;;;;;4.07;1.50;;;14.00;59.80;;;;;;5099081;28;20469;-77
2023/01/17 06:07:01;;;;;;;3.07;1.70;;;14.00;59.80;;;;;;5097356;28;20540;-76
2023/01/17 06:09:29;;;;;;;2.30;2.00;;;14.00;59.70;;;;;;5099304;28;20475;-77
2023/01/17 06:11:57;;;;;;;1.67;1.57;;;14.00;59.70;;;;;;5094596;28;20452;-77
2023/01/17 06:14:24;;;;;;;1.60;1.50;;;14.00;59.70;;;;;;5103784;28;20482;-77
2023/01/17 06:16:52;;;;;;;3.00;1.60;;;14.00;59.70;;;;;;5099253;28;20444;-77
2023/01/17 06:19:20;;;;;;;1.87;1.77;;;14.00;59.70;;;;;;5101708;28;20452;-77
2023/01/17 06:21:47;;;;;;;3.63;1.80;;;14.00;59.60;;;;;;5100781;28;20476;-77
2023/01/17 06:24:17;;;;;;;3.40;1.80;;;14.00;59.60;;;;;;5091998;28;20494;-77
2023/01/17 06:26:45;;;;;;;2.70;1.60;;;13.90;59.50;;;;;;5092972;28;20460;-77
2023/01/17 06:29:13;;;;;;;2.37;1.57;;;13.90;59.60;;;;;;5096277;28;20455;-76
2023/01/17 06:31:41;;;;;;;2.60;1.50;;;13.90;59.60;;;;;;5099907;28;20459;-76
2023/01/17 06:34:09;;;;;;;1.93;1.60;;;13.90;59.50;;;;;;5091141;28;20509;-77
2023/01/17 06:36:37;;;;;;;1.77;1.67;;;13.90;59.50;;;;;;5101551;28;20467;-76
2023/01/17 06:39:05;;;;;;;1.77;1.50;;;13.90;59.50;;;;;;5093827;28;20449;-77
2023/01/17 06:41:35;;;;;;;2.70;1.90;;;13.90;59.30;;;;;;5102107;28;20453;-76
2023/01/17 06:44:03;;;;;;;1.77;1.67;;;14.00;59.50;;;;;;5096811;28;20478;-76
2023/01/17 06:46:31;;;;;;;3.53;1.67;;;13.90;59.60;;;;;;5093297;28;20471;-76
2023/01/17 06:48:59;;;;;;;1.40;1.30;;;13.90;59.60;;;;;;5095350;28;20464;-76
2023/01/17 06:51:27;;;;;;;2.00;1.80;;;13.90;59.60;;;;;;5093497;28;20456;-75
2023/01/17 06:53:55;;;;;;;1.50;1.40;;;13.90;59.50;;;;;;5097134;28;20485;-77
2023/01/17 06:56:23;;;;;;;1.67;1.57;;;13.90;59.50;;;;;;5107260;28;20549;-77
2023/01/17 06:58:53;;;;;;;1.83;1.57;;;13.90;59.50;;;;;;5093470;28;20455;-77
2023/01/17 07:01:21;;;;;;;1.43;1.27;;;13.90;59.50;;;;;;5095623;28;20459;-77
2023/01/17 07:03:51;;;;;;;2.87;1.70;;;13.90;59.50;;;;;;5097896;28;20496;-75
2023/01/17 07:06:19;;;;;;;2.40;1.90;;;13.90;59.40;;;;;;5089174;28;20506;-76
2023/01/17 07:08:47;;;;;;;1.97;1.77;;;13.90;59.30;;;;;;5095381;28;20449;-77
2023/01/17 07:11:16;;;;;;;1.60;1.50;;;13.90;59.30;;;;;;5096647;28;20451;-77
2023/01/17 07:13:44;;;;;;;1.60;1.50;;;13.90;59.30;;;;;;5098107;28;20495;-76
2023/01/17 07:16:13;;;;;;;1.60;1.50;;;13.90;59.10;;;;;;5095764;28;20453;-77
2023/01/17 07:18:41;;;;;;;1.50;1.40;;;13.80;59.10;;;;;;5096522;28;20463;-77
2023/01/17 07:21:12;;;;;;;1.73;1.63;;;13.80;59.20;;;;;;5103100;28;20456;-76
2023/01/17 07:23:40;;;;;;;1.50;1.40;;;13.80;59.10;;;;;;5099280;28;20488;-79
2023/01/17 07:26:08;;;;;;;2.50;1.53;;;13.80;59.00;;;;;;5097758;28;20449;-77
2023/01/17 07:28:36;;;;;;;3.43;1.53;;;13.70;59.00;;;;;;5095743;28;20503;-78
2023/01/17 07:31:06;;;;;;;1.43;1.33;;;13.70;58.80;;;;;;5089733;28;20445;-77
2023/01/17 07:33:35;;;;;;;1.50;1.40;;;13.70;58.80;;;;;;5093281;28;20464;-77
2023/01/17 07:36:05;;;;;;;2.83;1.73;;;13.70;58.60;;;;;;5097233;28;20449;-77
2023/01/17 07:38:33;;;;;;;4.13;1.83;;;13.70;58.70;;;;;;5094825;28;20448;-77
2023/01/17 07:41:01;;;;;;;2.40;1.53;;;13.70;58.60;;;;;;5097548;28;20457;-77
2023/01/17 07:43:29;;;;;;;1.67;1.57;;;13.70;58.60;;;;;;5101262;28;20471;-77
2023/01/17 07:45:57;;;;;;;2.53;1.67;;;13.60;58.60;;;;;;5095142;28;20508;-77
2023/01/17 07:48:28;;;;;;;3.30;1.70;;;13.60;58.50;;;;;;5089275;28;20993;-77
2023/01/17 07:50:58;;;;;;;2.70;2.50;;;13.60;58.50;;;;;;5092290;28;20440;-77
2023/01/17 07:53:27;;;;;;;4.13;2.40;;;13.60;58.50;;;;;;5089084;28;20455;-77
2023/01/17 07:55:55;;;;;;;5.20;3.43;;;13.60;58.40;;;;;;5093718;28;20484;-77
2023/01/17 07:58:23;;;;;;;2.37;2.17;;;13.60;58.40;;;;;;5092174;28;20456;-76
2023/01/17 08:00:50;;;;;;;5.60;3.10;;;13.60;58.40;;;;;;5105466;28;20592;-76
2023/01/17 08:03:18;;;;;;;3.90;2.90;;;13.60;58.20;;;;;;5107519;28;20467;-76
2023/01/17 08:05:53;;;;;;;3.30;2.80;;;13.60;58.20;;;;;;5101425;28;20453;-76
2023/01/17 08:08:22;;;;;;;6.23;3.00;;;13.60;58.20;;;;;;5098565;28;20452;-76
2023/01/17 08:10:50;;;;;;;4.37;3.30;;;13.50;58.10;;;;;;5096293;28;20453;-75
2023/01/17 08:13:18;;;;;;;4.73;3.10;;;13.60;58.20;;;;;;5104063;28;20473;-77
2023/01/17 08:15:48;;;;;;;4.20;3.13;;;13.60;58.00;;;;;;5103374;28;20460;-77
2023/01/17 08:18:16;;;;;;;4.67;3.13;;;13.60;58.00;;;;;;5105518;28;20456;-77
2023/01/17 08:20:44;;;;;;;6.03;3.17;;;13.60;57.90;;;;;;5102892;28;20452;-77
2023/01/17 08:23:12;;;;;;;4.23;3.20;;;13.60;57.90;;;;;;5102445;28;20469;-77
2023/01/17 08:25:41;;;;;;;6.50;3.57;;;13.60;57.90;;;;;;5104734;28;20452;-79
2023/01/17 08:28:09;;;;;;;4.90;3.23;;;13.70;57.90;;;;;;5093996;28;20449;-77
2023/01/17 08:30:38;;;;;;;4.40;3.27;;;13.70;58.00;;;;;;5099317;28;20452;-77
2023/01/17 08:33:05;;;;;;;7.17;3.50;;;13.70;57.90;;;;;;5103594;28;20453;-77
2023/01/17 08:35:34;;;;;;;3.70;3.40;;;13.70;58.00;;;;;;5102018;28;20467;-78
2023/01/17 08:38:03;;;;;;;4.10;3.20;;;13.70;57.90;;;;;;5102821;28;20445;-77
2023/01/17 08:40:31;;;;;;;4.20;3.20;;;13.80;57.90;;;;;;5098772;28;20440;-77
2023/01/17 08:43:02;;;;;;;3.80;3.47;;;13.80;57.90;;;;;;5097754;28;20530;-77
2023/01/17 08:45:30;;;;;;;4.07;3.03;;;13.90;57.80;;;;;;5097554;28;20483;-78
2023/01/17 08:47:58;;;;;;;5.57;3.17;;;14.00;58.00;;;;;;5095966;28;20476;-77
2023/01/17 08:50:26;;;;;;;4.40;3.50;;;14.10;58.20;;;;;;5094939;28;20444;-78
2023/01/17 08:52:58;;;;;;;4.67;3.00;;;14.10;58.20;;;;;;5096927;28;20455;-77
2023/01/17 08:55:27;;;;;;;4.67;3.77;;;14.20;58.30;;;;;;5093694;28;20479;-77
2023/01/17 08:57:56;;;;;;;5.80;3.07;;;14.30;58.30;;;;;;5084011;28;20440;-77
2023/01/17 09:00:27;;;;;;;4.20;3.23;;;14.40;58.40;;;;;;5093519;28;20445;-77
2023/01/17 09:02:55;;;;;;;3.40;3.10;;;14.60;58.70;;;;;;5094677;28;20459;-77
2023/01/17 09:05:23;;;;;;;2.97;2.73;;;14.70;58.80;;;;;;5095725;28;20476;-77
2023/01/17 09:07:51;;;;;;;2.90;2.70;;;14.90;59.00;;;;;;5094480;28;20459;-77
2023/01/17 09:10:22;;;;;;;4.27;2.83;;;15.00;59.30;;;;;;5101754;28;20448;-76
2023/01/17 09:12:50;;;;;;;3.37;3.07;;;15.20;59.40;;;;;;5095363;28;20463;-77
2023/01/17 09:15:19;;;;;;;4.77;2.97;;;15.40;59.80;;;;;;5099175;28;20473;-77
2023/01/17 09:17:48;;;;;;;5.50;3.00;;;15.50;59.70;;;;;;5100823;28;20971;-77
2023/01/17 09:20:17;;;;;;;3.70;2.87;;;15.60;59.60;;;;;;5102573;28;20471;-77
2023/01/17 09:22:45;;;;;;;3.47;2.60;;;15.80;59.70;;;;;;5100750;28;20459;-76
2023/01/17 09:25:13;;;;;;;5.33;3.50;;;15.90;59.70;;;;;;5103634;28;20483;-78
2023/01/17 09:27:45;;;;;;;4.00;3.17;;;16.00;59.70;;;;;;5107649;28;20448;-77
2023/01/17 09:30:13;;;;;;;4.00;2.87;;;16.10;59.80;;;;;;5097786;28;20452;-77
2023/01/17 09:32:41;;;;;;;4.67;2.87;;;16.10;59.90;;;;;;5098200;28;20444;-77
2023/01/17 09:35:12;;;;;;;3.17;2.77;;;16.20;60.20;;;;;;5097012;28;20460;-77
2023/01/17 09:37:40;;;;;;;3.30;2.77;;;16.30;60.30;;;;;;5091347;28;20452;-78
2023/01/17 09:40:12;;;;;;;4.10;3.33;;;16.30;60.50;;;;;;5098367;28;20429;-77
2023/01/17 09:42:40;;;;;;;2.73;2.53;;;16.40;60.50;;;;;;5097757;28;20429;-77
2023/01/17 09:45:11;;;;;;;2.70;2.50;;;16.40;60.50;;;;;;5097438;28;20468;-77
2023/01/17 09:47:41;;;;;;;3.53;2.30;;;16.40;60.50;;;;;;5097754;28;20455;-77
2023/01/17 09:50:22;;;;;;;3.70;2.77;;;16.40;60.50;;;;;;5091665;28;20529;-76
2023/01/17 09:52:50;;;;;;;3.80;2.50;;;16.40;60.40;;;;;;5097879;28;20452;-77
2023/01/17 09:55:18;;;;;;;4.00;2.50;;;16.40;60.40;;;;;;5089563;28;20467;-76
2023/01/17 09:57:52;;;;;;;4.07;2.80;;;16.50;60.60;;;;;;5091914;28;20452;-76
2023/01/17 10:00:36;;;;;;;2.50;2.30;;;16.50;60.60;;;;;;5088038;28;20454;-77
2023/01/17 10:03:30;;;;;;;2.83;2.43;;;16.60;60.70;;;;;;5090132;28;20506;-78
2023/01/17 10:06:04;;;;;;;2.93;2.37;;;16.80;60.70;;;;;;5088531;28;20472;-76
2023/01/17 10:08:42;;;;;;;3.33;2.47;;;16.90;61.00;;;;;;5089706;28;20436;-77
2023/01/17 10:11:23;;;;;;;2.53;2.33;;;17.20;61.10;;;;;;5089698;28;20453;-76
2023/01/17 10:13:55;;;;;;;2.40;2.20;;;17.40;61.00;;;;;;5094611;28;20495;-76
2023/01/17 10:16:30;;;;;;;2.50;2.10;;;17.70;61.00;;;;;;5085742;28;20437;-77
2023/01/17 10:19:14;;;;;;;3.70;2.20;;;17.90;60.70;;;;;;5086803;28;20440;-76
2023/01/17 10:22:00;;;;;;;2.80;1.77;;;18.20;60.60;;;;;;5086741;28;20441;-76
2023/01/17 10:24:36;;;;;;;1.90;1.80;;;18.50;60.50;;;;;;5089368;28;20484;-76
2023/01/17 10:27:08;;;;;;;2.20;1.83;;;18.70;60.20;;;;;;5081316;28;20433;-77
2023/01/17 10:29:36;;;;;;;1.83;1.73;;;18.90;60.20;;;;;;5092106;28;20436;-76
2023/01/17 10:32:04;;;;;;;2.00;1.80;;;19.10;60.20;;;;;;5085726;28;20862;-78
2023/01/17 10:34:34;;;;;;;3.10;1.80;;;19.30;60.00;;;;;;5085472;28;20456;-78
2023/01/17 10:37:11;;;;;;;1.73;1.63;;;19.50;59.80;;;;;;5094121;28;20451;-76
2023/01/17 10:39:39;;;;;;;2.33;2.13;;;19.80;59.90;;;;;;5091166;28;20447;-76
2023/01/17 10:42:07;;;;;;;1.90;1.80;;;19.90;59.90;;;;;;5093035;28;20457;-77
2023/01/17 10:44:37;;;;;;;3.63;1.60;;;20.10;59.80;;;;;;5087293;28;20468;-77
2023/01/17 10:47:07;;;;;;;2.90;2.00;;;20.30;59.70;;;;;;5088744;28;20430;-76
2023/01/17 10:49:36;;;;;;;3.50;1.87;;;20.50;59.80;;;;;;5086088;28;20472;-75
2023/01/17 10:52:12;;;;;;;3.10;1.87;;;20.70;59.80;;;;;;5087512;28;20442;-76
2023/01/17 10:54:57;;;;;;;5.63;1.30;;;20.90;59.80;;;;;;5086636;28;20488;-76
2023/01/17 10:57:27;;;;;;;4.60;1.77;;;21.00;59.50;;;;;;5088761;28;20527;-76
2023/01/17 10:59:58;;;;;;;1.83;1.63;;;21.20;59.70;;;;;;5086200;28;20426;-76
2023/01/17 11:02:28;;;;;;;5.70;1.40;;;21.40;59.60;;;;;;5087689;28;20429;-77
2023/01/17 11:04:57;;;;;;;3.47;1.97;;;21.60;59.60;;;;;;5088052;28;20469;-77
2023/01/17 11:07:27;;;;;;;4.27;2.20;;;21.80;59.50;;;;;;5092750;28;20437;-75
2023/01/17 11:09:55;;;;;;;3.30;1.77;;;22.00;59.20;;;;;;5081110;28;20434;-76
2023/01/17 11:12:29;;;;;;;2.40;1.70;;;22.20;59.20;;;;;;5095569;28;20444;-77
2023/01/17 11:15:03;;;;;;;2.20;1.90;;;22.40;58.90;;;;;;5088009;28;20479;-77
2023/01/17 11:17:32;;;;;;;1.63;1.53;;;22.70;58.70;;;;;;5092274;28;20441;-77
2023/01/17 11:20:15;;;;;;;2.30;1.53;;;22.90;58.50;;;;;;5092164;28;20441;-76
2023/01/17 11:22:48;;;;;;;2.40;1.53;;;23.10;58.00;;;;;;5089863;28;20444;-76
2023/01/17 11:25:20;;;;;;;2.47;1.80;;;23.30;57.80;;;;;;5090748;28;20477;-77
2023/01/17 11:27:57;;;;;;;3.33;1.70;;;23.50;57.60;;;;;;5084882;28;20429;-76
2023/01/17 11:30:28;;;;;;;2.40;1.50;;;23.70;57.30;;;;;;5086844;28;20412;-76
2023/01/17 11:32:56;;;;;;;4.00;1.93;;;23.80;57.00;;;;;;5089831;28;20443;-75
2023/01/17 11:35:25;;;;;;;2.23;1.60;;;24.00;56.80;;;;;;5087732;28;20453;-77
2023/01/17 11:38:04;;;;;;;1.73;1.57;;;24.20;56.50;;;;;;5084031;28;20933;-76
2023/01/17 11:40:36;;;;;;;4.40;1.47;;;24.40;56.10;;;;;;5084846;28;20438;-77
2023/01/17 11:43:06;;;;;;;2.50;1.70;;;24.60;56.00;;;;;;5091542;28;20433;-77
2023/01/17 11:45:34;;;;;;;2.37;1.63;;;24.70;55.60;;;;;;5086932;28;20448;-76
2023/01/17 11:48:09;;;;;;;1.73;1.63;;;24.80;55.30;;;;;;5085441;28;20422;-76
2023/01/17 11:50:38;;;;;;;2.23;1.70;;;25.00;55.00;;;;;;5087950;28;20448;-77
2023/01/17 11:53:19;;;;;;;2.60;1.40;;;25.20;54.90;;;;;;5092852;28;20432;-77
2023/01/17 11:56:02;;;;;;;1.37;1.27;;;25.20;53.90;;;;;;5091439;28;20445;-76
2023/01/17 11:58:30;;;;;;;3.53;1.63;;;25.10;53.70;;;;;;5091671;28;20423;-75
2023/01/17 12:01:07;;;;;;;1.90;1.50;;;24.90;53.90;;;;;;5092111;28;20477;-77
2023/01/17 12:04:00;;;;;;;1.93;1.20;;;24.90;53.40;;;;;;5091232;28;20435;-77
2023/01/17 12:06:31;;;;;;;1.40;1.20;;;24.80;53.60;;;;;;5087766;28;20865;-77
2023/01/17 12:09:07;;;;;;;2.30;1.20;;;25.00;54.00;;;;;;5094499;28;20423;-77
2023/01/17 12:13:59;;;;;;;2.03;1.43;;;25.20;53.80;;;;;;5091367;28;20466;-77
2023/01/17 12:14:33;;;;;;;2.40;1.10;;;25.20;52.80;;;;;;5096469;28;20479;-78
2023/01/17 12:17:05;;;;;;;1.40;1.30;;;24.80;52.60;;;;;;5092727;28;20444;-76
2023/01/17 12:19:44;;;;;;;2.00;1.50;;;24.70;53.10;;;;;;5092132;28;20454;-77
2023/01/17 12:22:23;;;;;;;1.47;1.33;;;24.40;52.80;;;;;;5094074;28;20910;-78
2023/01/17 12:25:02;;;;;;;1.70;1.53;;;24.10;53.50;;;;;;5090937;28;20469;-77
2023/01/17 12:27:34;;;;;;;1.47;1.13;;;24.20;54.10;;;;;;5094137;28;20422;-77
2023/01/17 12:30:08;;;;;;;4.13;1.70;;;24.10;53.10;;;;;;5084911;28;20435;-76
2023/01/17 12:32:54;;;;;;;7.40;1.50;;;23.80;53.20;;;;;;5093445;28;20439;-77
2023/01/17 12:35:24;;;;;;;3.00;1.60;;;23.50;53.30;;;;;;5091073;28;20447;-76
2023/01/17 12:37:54;;;;;;;1.73;1.40;;;23.10;53.70;;;;;;5088850;28;20422;-76
2023/01/17 12:40:35;;;;;;;2.63;1.90;;;22.80;53.90;;;;;;5092574;28;20446;-77
2023/01/17 12:43:05;;;;;;;2.40;1.40;;;22.50;54.20;;;;;;5087972;28;20445;-77
2023/01/17 12:45:36;;;;;;;1.93;1.50;;;22.20;54.20;;;;;;5093632;28;20474;-77
2023/01/17 12:48:05;;;;;;;1.60;1.50;;;21.90;54.40;;;;;;5096442;28;20450;-77
2023/01/17 12:50:36;;;;;;;3.47;1.50;;;21.70;54.60;;;;;;5098454;28;20449;-75
2023/01/17 12:53:10;;;;;;;2.80;1.20;;;21.50;54.80;;;;;;5093410;28;20452;-77
2023/01/17 12:55:43;;;;;;;1.93;1.37;;;21.30;55.00;;;;;;5094095;28;20463;-78
2023/01/17 12:58:15;;;;;;;1.40;1.30;;;21.20;55.30;;;;;;5088445;28;20449;-77
2023/01/17 13:00:42;;;;;;;3.80;1.40;;;21.10;55.50;;;;;;5097453;28;20439;-77
2023/01/17 13:03:14;;;;;;;6.37;1.50;;;21.00;55.60;;;;;;5088053;28;20449;-76
2023/01/17 13:05:44;;;;;;;1.20;1.07;;;21.50;56.70;;;;;;5096677;28;20468;-76
2023/01/17 13:08:18;;;;;;;2.90;1.80;;;22.00;56.50;;;;;;5093404;28;20454;-76
2023/01/17 13:10:50;;;;;;;2.23;1.50;;;22.60;56.20;;;;;;5095956;28;20430;-78
2023/01/17 13:13:21;;;;;;;1.57;1.20;;;23.00;55.50;;;;;;5087969;28;20460;-78
2023/01/17 13:15:49;;;;;;;1.70;1.20;;;23.10;54.20;;;;;;5086078;28;20499;-77
2023/01/17 13:18:21;;;;;;;1.83;1.33;;;23.00;53.90;;;;;;5092481;28;20508;-77
2023/01/17 13:21:03;;;;;;;1.43;1.30;;;23.00;54.10;;;;;;5092409;28;20456;-75
2023/01/17 13:23:44;;;;;;;4.43;1.60;;;23.10;54.40;;;;;;5095116;28;20452;-78
2023/01/17 13:26:19;;;;;;;1.40;1.30;;;23.50;54.30;;;;;;5094175;28;20475;-77
2023/01/17 13:28:50;;;;;;;3.10;1.20;;;23.70;54.00;;;;;;5095357;28;20454;-77
2023/01/17 13:31:27;;;;;;;1.33;1.20;;;23.60;53.00;;;;;;5096524;28;20474;-76
2023/01/17 13:34:02;;;;;;;1.43;1.30;;;23.70;53.10;;;;;;5095545;28;20472;-76
2023/01/17 13:36:44;;;;;;;2.40;1.80;;;23.80;53.20;;;;;;5093185;28;20456;-77
2023/01/17 13:39:26;;;;;;;2.40;1.70;;;24.00;52.90;;;;;;5094063;28;20475;-76
2023/01/17 13:42:03;;;;;;;2.40;2.20;;;24.00;52.50;;;;;;5090318;28;20440;-78
2023/01/17 13:44:32;;;;;;;2.50;2.30;;;23.90;52.30;;;;;;5095278;28;20471;-77
2023/01/17 13:47:01;;;;;;;2.90;2.60;;;23.70;52.00;;;;;;5088233;28;20468;-77
2023/01/17 13:49:42;;;;;;;3.33;2.73;;;23.30;52.10;;;;;;5092028;28;20445;-77
2023/01/17 13:52:11;;;;;;;4.70;3.70;;;23.10;52.50;;;;;;5091919;28;20460;-76
2023/01/17 13:54:46;;;;;;;5.30;3.60;;;22.90;53.00;;;;;;5093399;28;20467;-76
2023/01/17 13:57:40;;;;;;;3.70;3.40;;;22.70;53.20;;;;;;5089362;28;20453;-77
2023/01/17 14:00:50;;;;;;;4.10;3.23;;;22.60;53.10;;;;;;5091658;28;20514;-77
2023/01/17 14:03:51;;;;;;;4.67;3.60;;;22.50;53.50;;;;;;5063334;28;20525;-77
2023/01/17 14:06:33;;;;;;;4.00;3.60;;;22.40;53.60;;;;;;5093640;28;20479;-76
2023/01/17 14:09:02;;;;;;;5.70;3.23;;;22.40;53.70;;;;;;5088130;28;20427;-77
2023/01/17 14:11:32;;;;;;;5.23;3.20;;;22.20;53.40;;;;;;5091949;28;20452;-77
2023/01/17 14:14:34;;;;;;;3.13;2.80;;;22.10;53.60;;;;;;5088017;28;20495;-76
2023/01/17 14:17:48;;;;;;;4.83;3.30;;;22.10;53.70;;;;;;5091035;28;20440;-76
2023/01/17 14:20:38;;;;;;;3.73;3.00;;;21.90;53.30;;;;;;5091133;28;20543;-76
2023/01/17 14:23:24;;;;;;;3.70;3.30;;;21.60;53.20;;;;;;5090601;28;20445;-75
2023/01/17 14:25:52;;;;;;;4.63;2.63;;;21.50;53.40;;;;;;5092362;28;20452;-77
2023/01/17 14:28:22;;;;;;;3.57;3.10;;;21.30;53.60;;;;;;5090177;28;20480;-76
2023/01/17 14:30:54;;;;;;;3.83;2.93;;;21.20;53.50;;;;;;5094746;28;20451;-76